sensor_id;sensor_type;location;lat;lon;timestamp;pressure;altitude;pressure_sealevel;temperature;humidity
11114;BME280;5610;52.154;9.198;2023-01-31T00:00:28;101167.28;;;5.68;100.00
11114;BME280;5610;52.154;9.198;2023-01-31T00:03:13;101169.59;;;5.77;100.00
11114;BME280;5610;52.154;9.198;2023-01-31T00:06:13;101175.41;;;5.88;100.00
11114;BME280;5610;52.154;9.198;2023-01-31T00:09:00;101169.84;;;5.97;100.00
11114;BME280;5610;52.154;9.198;2023-01-31T00:11:45;101173.84;;;5.83;100.00
11114;BME280;5610;52.154;9.198;2023-01-31T00:14:30;101178.00;;;5.90;100.00
11114;BME280;5610;52.154;9.198;2023-01-31T00:17:16;101178.19;;;5.85;100.00
11114;BME280;5610;52.154;9.198;2023-01-31T00:20:01;101191.44;;;5.84;100.00
11114;BME280;5610;52.154;9.198;2023-01-31T00:22:48;101176.41;;;5.86;100.00
11114;BME280;5610;52.154;9.198;2023-01-31T00:25:33;101166.16;;;5.75;100.00
11114;BME280;5610;52.154;9.198;2023-01-31T00:28:18;101179.03;;;5.59;100.00
11114;BME280;5610;52.154;9.198;2023-01-31T00:31:04;101172.44;;;5.72;100.00
11114;BME280;5610;52.154;9.198;2023-01-31T00:33:50;101170.59;;;5.74;100.00
11114;BME280;5610;52.154;9.198;2023-01-31T00:36:36;101177.13;;;5.63;100.00
11114;BME280;5610;52.154;9.198;2023-01-31T00:39:23;101179.63;;;5.67;100.00
11114;BME280;5610;52.154;9.198;2023-01-31T00:42:08;101180.34;;;5.72;100.00
11114;BME280;5610;52.154;9.198;2023-01-31T00:44:53;101177.66;;;5.74;100.00
11114;BME280;5610;52.154;9.198;2023-01-31T00:47:39;101170.31;;;5.82;100.00
11114;BME280;5610;52.154;9.198;2023-01-31T00:50:24;101168.59;;;5.81;100.00
11114;BME280;5610;52.154;9.198;2023-01-31T00:53:12;101163.50;;;5.75;100.00
11114;BME280;5610;52.154;9.198;2023-01-31T00:56:03;101163.50;;;5.75;100.00
11114;BME280;5610;52.154;9.198;2023-01-31T00:58:50;101153.91;;;5.72;100.00
11114;BME280;5610;52.154;9.198;2023-01-31T01:01:36;101163.56;;;5.73;100.00
11114;BME280;5610;52.154;9.198;2023-01-31T01:04:22;101168.66;;;5.79;100.00
11114;BME280;5610;52.154;9.198;2023-01-31T01:07:08;101178.38;;;5.79;100.00
11114;BME280;5610;52.154;9.198;2023-01-31T01:09:54;101181.94;;;5.78;100.00
11114;BME280;5610;52.154;9.198;2023-01-31T01:12:40;101187.44;;;5.70;100.00
11114;BME280;5610;52.154;9.198;2023-01-31T01:15:26;101175.22;;;5.68;100.00
11114;BME280;5610;52.154;9.198;2023-01-31T01:18:11;101196.56;;;5.62;100.00
11114;BME280;5610;52.154;9.198;2023-01-31T01:21:04;101188.00;;;5.54;100.00
11114;BME280;5610;52.154;9.198;2023-01-31T01:23:49;101190.03;;;5.45;100.00
11114;BME280;5610;52.154;9.198;2023-01-31T01:26:35;101183.16;;;5.40;100.00
11114;BME280;5610;52.154;9.198;2023-01-31T01:29:23;101190.22;;;5.39;100.00
11114;BME280;5610;52.154;9.198;2023-01-31T01:32:08;101189.41;;;5.37;100.00
11114;BME280;5610;52.154;9.198;2023-01-31T01:34:54;101195.31;;;5.45;100.00
11114;BME280;5610;52.154;9.198;2023-01-31T01:37:39;101206.63;;;5.50;100.00
11114;BME280;5610;52.154;9.198;2023-01-31T01:40:34;101204.00;;;5.49;100.00
11114;BME280;5610;52.154;9.198;2023-01-31T01:43:19;101209.47;;;5.44;100.00
11114;BME280;5610;52.154;9.198;2023-01-31T01:46:07;101209.03;;;5.57;100.00
11114;BME280;5610;52.154;9.198;2023-01-31T01:48:59;101211.00;;;5.51;100.00
11114;BME280;5610;52.154;9.198;2023-01-31T01:51:46;101211.84;;;5.52;100.00
11114;BME280;5610;52.154;9.198;2023-01-31T01:54:35;101229.44;;;5.53;100.00
11114;BME280;5610;52.154;9.198;2023-01-31T01:57:27;101229.16;;;5.62;100.00
11114;BME280;5610;52.154;9.198;2023-01-31T02:00:19;101236.06;;;5.66;100.00
11114;BME280;5610;52.154;9.198;2023-01-31T02:03:06;101223.78;;;5.65;100.00
11114;BME280;5610;52.154;9.198;2023-01-31T02:05:55;101227.47;;;5.60;100.00
11114;BME280;5610;52.154;9.198;2023-01-31T02:08:42;101231.03;;;5.59;100.00
11114;BME280;5610;52.154;9.198;2023-01-31T02:11:30;101223.03;;;5.60;100.00
11114;BME280;5610;52.154;9.198;2023-01-31T02:14:15;101231.53;;;5.42;100.00
11114;BME280;5610;52.154;9.198;2023-01-31T02:17:02;101236.81;;;5.43;100.00
11114;BME280;5610;52.154;9.198;2023-01-31T02:20:00;101238.53;;;5.44;100.00
11114;BME280;5610;52.154;9.198;2023-01-31T02:22:56;101239.81;;;5.31;100.00
11114;BME280;5610;52.154;9.198;2023-01-31T02:26:02;101241.34;;;5.38;100.00
11114;BME280;5610;52.154;9.198;2023-01-31T02:29:14;101234.09;;;5.45;100.00
11114;BME280;5610;52.154;9.198;2023-01-31T02:35:41;101245.00;;;5.34;100.00
11114;BME280;5610;52.154;9.198;2023-01-31T02:38:40;101242.47;;;5.31;100.00
11114;BME280;5610;52.154;9.198;2023-01-31T02:41:35;101223.09;;;5.31;100.00
11114;BME280;5610;52.154;9.198;2023-01-31T02:44:26;101230.91;;;5.34;100.00
11114;BME280;5610;52.154;9.198;2023-01-31T02:47:38;101241.53;;;5.32;100.00
11114;BME280;5610;52.154;9.198;2023-01-31T02:50:28;101248.38;;;5.39;100.00
11114;BME280;5610;52.154;9.198;2023-01-31T02:53:20;101257.16;;;5.40;100.00
11114;BME280;5610;52.154;9.198;2023-01-31T02:56:10;101239.72;;;5.34;100.00
11114;BME280;5610;52.154;9.198;2023-01-31T02:59:05;101243.81;;;5.44;100.00
11114;BME280;5610;52.154;9.198;2023-01-31T03:01:57;101254.44;;;5.43;100.00
11114;BME280;5610;52.154;9.198;2023-01-31T03:04:44;101253.72;;;5.38;100.00
11114;BME280;5610;52.154;9.198;2023-01-31T03:07:31;101262.44;;;5.40;100.00
11114;BME280;5610;52.154;9.198;2023-01-31T03:10:32;101251.00;;;5.39;100.00
11114;BME280;5610;52.154;9.198;2023-01-31T03:13:32;101241.66;;;5.29;100.00
11114;BME280;5610;52.154;9.198;2023-01-31T03:16:24;101240.97;;;5.22;100.00
11114;BME280;5610;52.154;9.198;2023-01-31T03:19:33;101240.34;;;5.13;100.00
11114;BME280;5610;52.154;9.198;2023-01-31T03:22:24;101234.81;;;5.22;100.00
11114;BME280;5610;52.154;9.198;2023-01-31T03:25:12;101238.50;;;5.16;100.00
11114;BME280;5610;52.154;9.198;2023-01-31T03:28:05;101231.16;;;5.26;100.00
11114;BME280;5610;52.154;9.198;2023-01-31T03:30:58;101217.41;;;5.15;100.00
11114;BME280;5610;52.154;9.198;2023-01-31T03:33:50;101225.22;;;5.18;100.00
11114;BME280;5610;52.154;9.198;2023-01-31T03:36:40;101227.25;;;5.10;100.00
11114;BME280;5610;52.154;9.198;2023-01-31T03:39:59;101228.19;;;5.07;100.00
11114;BME280;5610;52.154;9.198;2023-01-31T03:42:51;101224.66;;;5.08;100.00
11114;BME280;5610;52.154;9.198;2023-01-31T03:45:44;101216.75;;;5.07;100.00
11114;BME280;5610;52.154;9.198;2023-01-31T03:48:34;101203.78;;;4.99;100.00
11114;BME280;5610;52.154;9.198;2023-01-31T03:51:24;101215.88;;;5.06;100.00
11114;BME280;5610;52.154;9.198;2023-01-31T03:54:14;101213.19;;;5.09;100.00
11114;BME280;5610;52.154;9.198;2023-01-31T03:57:05;101210.66;;;5.05;100.00
11114;BME280;5610;52.154;9.198;2023-01-31T03:59:56;101208.88;;;5.05;100.00
11114;BME280;5610;52.154;9.198;2023-01-31T04:02:46;101222.09;;;5.05;100.00
11114;BME280;5610;52.154;9.198;2023-01-31T04:05:34;101218.00;;;4.95;100.00
11114;BME280;5610;52.154;9.198;2023-01-31T04:08:21;101225.00;;;4.96;100.00
11114;BME280;5610;52.154;9.198;2023-01-31T04:11:19;101212.72;;;4.95;100.00
11114;BME280;5610;52.154;9.198;2023-01-31T04:14:05;101210.31;;;4.86;100.00
11114;BME280;5610;52.154;9.198;2023-01-31T04:16:50;101205.88;;;4.88;100.00
11114;BME280;5610;52.154;9.198;2023-01-31T04:19:37;101205.25;;;4.80;100.00
11114;BME280;5610;52.154;9.198;2023-01-31T04:22:22;101207.09;;;4.76;100.00
11114;BME280;5610;52.154;9.198;2023-01-31T04:25:08;101214.19;;;4.74;100.00
11114;BME280;5610;52.154;9.198;2023-01-31T04:27:53;101224.44;;;4.85;100.00
11114;BME280;5610;52.154;9.198;2023-01-31T04:30:38;101218.25;;;4.86;100.00
11114;BME280;5610;52.154;9.198;2023-01-31T04:33:24;101218.25;;;4.86;100.00
11114;BME280;5610;52.154;9.198;2023-01-31T04:36:10;101207.84;;;5.11;100.00
11114;BME280;5610;52.154;9.198;2023-01-31T04:38:56;101208.47;;;4.89;100.00
11114;BME280;5610;52.154;9.198;2023-01-31T04:41:41;101216.84;;;5.04;100.00
11114;BME280;5610;52.154;9.198;2023-01-31T04:44:26;101200.09;;;5.05;100.00
11114;BME280;5610;52.154;9.198;2023-01-31T04:47:12;101206.91;;;5.12;100.00
11114;BME280;5610;52.154;9.198;2023-01-31T04:49:57;101198.25;;;5.08;100.00
11114;BME280;5610;52.154;9.198;2023-01-31T04:52:44;101200.03;;;5.08;100.00
11114;BME280;5610;52.154;9.198;2023-01-31T04:55:33;101208.13;;;5.00;100.00
11114;BME280;5610;52.154;9.198;2023-01-31T04:58:18;101211.75;;;4.97;100.00
11114;BME280;5610;52.154;9.198;2023-01-31T05:01:04;101217.19;;;4.91;100.00
11114;BME280;5610;52.154;9.198;2023-01-31T05:03:49;101213.81;;;5.17;100.00
11114;BME280;5610;52.154;9.198;2023-01-31T05:06:34;101214.94;;;5.09;100.00
11114;BME280;5610;52.154;9.198;2023-01-31T05:09:21;101221.91;;;5.11;100.00
11114;BME280;5610;52.154;9.198;2023-01-31T05:12:07;101216.53;;;5.14;100.00
11114;BME280;5610;52.154;9.198;2023-01-31T05:14:53;101202.09;;;5.26;100.00
11114;BME280;5610;52.154;9.198;2023-01-31T05:17:38;101209.69;;;5.37;100.00
11114;BME280;5610;52.154;9.198;2023-01-31T05:20:23;101205.75;;;5.22;100.00
11114;BME280;5610;52.154;9.198;2023-01-31T05:23:09;101199.69;;;5.18;100.00
11114;BME280;5610;52.154;9.198;2023-01-31T05:25:55;101205.47;;;5.31;100.00
11114;BME280;5610;52.154;9.198;2023-01-31T05:28:41;101200.00;;;5.37;100.00
11114;BME280;5610;52.154;9.198;2023-01-31T05:31:26;101192.38;;;5.27;100.00
11114;BME280;5610;52.154;9.198;2023-01-31T05:34:11;101184.22;;;5.34;100.00
11114;BME280;5610;52.154;9.198;2023-01-31T05:36:59;101184.63;;;5.22;100.00
11114;BME280;5610;52.154;9.198;2023-01-31T05:39:45;101187.28;;;5.20;100.00
11114;BME280;5610;52.154;9.198;2023-01-31T05:42:31;101188.25;;;5.18;100.00
11114;BME280;5610;52.154;9.198;2023-01-31T05:45:17;101185.47;;;5.22;100.00
11114;BME280;5610;52.154;9.198;2023-01-31T05:48:03;101182.84;;;5.22;100.00
11114;BME280;5610;52.154;9.198;2023-01-31T05:50:48;101186.78;;;5.37;100.00
11114;BME280;5610;52.154;9.198;2023-01-31T05:53:34;101184.22;;;5.34;100.00
11114;BME280;5610;52.154;9.198;2023-01-31T05:56:19;101176.25;;;5.36;100.00
11114;BME280;5610;52.154;9.198;2023-01-31T05:59:06;101176.53;;;5.27;100.00
11114;BME280;5610;52.154;9.198;2023-01-31T06:01:51;101171.84;;;5.36;100.00
11114;BME280;5610;52.154;9.198;2023-01-31T06:04:37;101162.63;;;5.21;100.00
11114;BME280;5610;52.154;9.198;2023-01-31T06:07:22;101165.63;;;5.37;100.00
11114;BME280;5610;52.154;9.198;2023-01-31T06:10:10;101173.63;;;5.36;100.00
11114;BME280;5610;52.154;9.198;2023-01-31T06:12:56;101165.97;;;5.27;100.00
11114;BME280;5610;52.154;9.198;2023-01-31T06:15:43;101165.59;;;5.39;100.00
11114;BME280;5610;52.154;9.198;2023-01-31T06:18:29;101166.50;;;5.38;100.00
11114;BME280;5610;52.154;9.198;2023-01-31T06:21:14;101157.78;;;5.34;100.00
11114;BME280;5610;52.154;9.198;2023-01-31T06:23:59;101157.66;;;5.39;100.00
11114;BME280;5610;52.154;9.198;2023-01-31T06:26:45;101156.00;;;5.35;100.00
11114;BME280;5610;52.154;9.198;2023-01-31T06:29:30;101145.25;;;5.41;100.00
11114;BME280;5610;52.154;9.198;2023-01-31T06:32:17;101155.72;;;5.44;100.00
11114;BME280;5610;52.154;9.198;2023-01-31T06:35:03;101142.81;;;5.61;100.00
11114;BME280;5610;52.154;9.198;2023-01-31T06:37:48;101146.59;;;5.54;100.00
11114;BME280;5610;52.154;9.198;2023-01-31T06:40:34;101147.34;;;5.58;100.00
11114;BME280;5610;52.154;9.198;2023-01-31T06:43:20;101143.22;;;5.49;100.00
11114;BME280;5610;52.154;9.198;2023-01-31T06:46:05;101146.72;;;5.49;100.00
11114;BME280;5610;52.154;9.198;2023-01-31T06:48:52;101137.78;;;5.54;100.00
11114;BME280;5610;52.154;9.198;2023-01-31T06:51:37;101135.94;;;5.56;100.00
11114;BME280;5610;52.154;9.198;2023-01-31T06:54:22;101129.78;;;5.55;100.00
11114;BME280;5610;52.154;9.198;2023-01-31T06:57:08;101145.31;;;5.66;100.00
11114;BME280;5610;52.154;9.198;2023-01-31T06:59:53;101138.66;;;5.54;100.00
11114;BME280;5610;52.154;9.198;2023-01-31T07:02:38;101129.41;;;5.67;100.00
11114;BME280;5610;52.154;9.198;2023-01-31T07:05:25;101125.75;;;5.71;100.00
11114;BME280;5610;52.154;9.198;2023-01-31T07:08:11;101121.59;;;5.64;100.00
11114;BME280;5610;52.154;9.198;2023-01-31T07:10:57;101129.50;;;5.64;100.00
11114;BME280;5610;52.154;9.198;2023-01-31T07:13:44;101120.47;;;5.71;100.00
11114;BME280;5610;52.154;9.198;2023-01-31T07:16:30;101123.13;;;5.70;100.00
11114;BME280;5610;52.154;9.198;2023-01-31T07:19:16;101114.34;;;5.69;100.00
11114;BME280;5610;52.154;9.198;2023-01-31T07:22:03;101113.41;;;5.72;100.00
11114;BME280;5610;52.154;9.198;2023-01-31T07:24:48;101103.22;;;5.86;100.00
11114;BME280;5610;52.154;9.198;2023-01-31T07:27:34;101092.19;;;5.73;100.00
11114;BME280;5610;52.154;9.198;2023-01-31T07:30:20;101101.38;;;5.88;100.00
11114;BME280;5610;52.154;9.198;2023-01-31T07:33:05;101090.69;;;5.91;100.00
11114;BME280;5610;52.154;9.198;2023-01-31T07:35:50;101086.34;;;5.89;100.00
11114;BME280;5610;52.154;9.198;2023-01-31T07:38:37;101077.13;;;5.75;100.00
11114;BME280;5610;52.154;9.198;2023-01-31T07:41:22;101087.38;;;5.85;100.00
11114;BME280;5610;52.154;9.198;2023-01-31T07:44:09;101078.94;;;6.00;100.00
11114;BME280;5610;52.154;9.198;2023-01-31T07:46:54;101066.53;;;6.02;100.00
11114;BME280;5610;52.154;9.198;2023-01-31T07:49:40;101069.53;;;6.16;100.00
11114;BME280;5610;52.154;9.198;2023-01-31T07:52:25;101073.09;;;6.15;100.00
11114;BME280;5610;52.154;9.198;2023-01-31T07:55:12;101072.97;;;6.18;100.00
11114;BME280;5610;52.154;9.198;2023-01-31T07:57:57;101051.72;;;6.21;100.00
11114;BME280;5610;52.154;9.198;2023-01-31T08:00:42;101058.16;;;6.38;100.00
11114;BME280;5610;52.154;9.198;2023-01-31T08:03:46;101056.13;;;6.44;100.00
11114;BME280;5610;52.154;9.198;2023-01-31T08:06:31;101032.94;;;6.51;100.00
11114;BME280;5610;52.154;9.198;2023-01-31T08:09:16;101040.72;;;6.55;100.00
11114;BME280;5610;52.154;9.198;2023-01-31T08:12:04;101043.09;;;6.61;100.00
11114;BME280;5610;52.154;9.198;2023-01-31T08:14:49;101040.84;;;6.74;100.00
11114;BME280;5610;52.154;9.198;2023-01-31T08:17:34;101031.25;;;6.72;100.00
11114;BME280;5610;52.154;9.198;2023-01-31T08:20:20;101036.72;;;6.67;100.00
11114;BME280;5610;52.154;9.198;2023-01-31T08:23:05;101017.31;;;6.88;100.00
11114;BME280;5610;52.154;9.198;2023-01-31T08:25:50;101018.72;;;6.75;100.00
11114;BME280;5610;52.154;9.198;2023-01-31T08:28:37;101041.41;;;6.82;100.00
11114;BME280;5610;52.154;9.198;2023-01-31T08:31:24;101023.06;;;6.78;100.00
11114;BME280;5610;52.154;9.198;2023-01-31T08:34:10;101019.25;;;6.85;100.00
11114;BME280;5610;52.154;9.198;2023-01-31T08:36:55;101014.13;;;6.80;100.00
11114;BME280;5610;52.154;9.198;2023-01-31T08:39:41;100985.03;;;7.01;100.00
11114;BME280;5610;52.154;9.198;2023-01-31T08:42:27;100995.84;;;7.16;100.00
11114;BME280;5610;52.154;9.198;2023-01-31T08:45:14;101001.91;;;7.20;100.00
11114;BME280;5610;52.154;9.198;2023-01-31T08:47:59;100972.72;;;7.00;100.00
11114;BME280;5610;52.154;9.198;2023-01-31T08:50:44;100996.75;;;6.73;100.00
11114;BME280;5610;52.154;9.198;2023-01-31T08:53:30;100970.13;;;6.76;100.00
11114;BME280;5610;52.154;9.198;2023-01-31T08:56:15;100977.41;;;6.93;100.00
11114;BME280;5610;52.154;9.198;2023-01-31T08:59:00;100980.09;;;7.13;100.00
11114;BME280;5610;52.154;9.198;2023-01-31T09:01:47;100971.88;;;6.99;100.00
11114;BME280;5610;52.154;9.198;2023-01-31T09:04:32;100973.25;;;7.08;100.00
11114;BME280;5610;52.154;9.198;2023-01-31T09:07:18;100986.66;;;7.25;100.00
11114;BME280;5610;52.154;9.198;2023-01-31T09:10:05;100968.97;;;7.26;100.00
11114;BME280;5610;52.154;9.198;2023-01-31T09:12:50;100964.66;;;7.23;100.00
11114;BME280;5610;52.154;9.198;2023-01-31T09:15:35;100964.66;;;7.23;100.00
11114;BME280;5610;52.154;9.198;2023-01-31T09:18:22;100961.63;;;7.12;100.00
11114;BME280;5610;52.154;9.198;2023-01-31T09:21:09;100963.44;;;7.10;100.00
11114;BME280;5610;52.154;9.198;2023-01-31T09:23:56;100949.69;;;6.80;100.00
11114;BME280;5610;52.154;9.198;2023-01-31T09:26:41;100960.47;;;6.53;100.00
11114;BME280;5610;52.154;9.198;2023-01-31T09:29:27;100960.69;;;6.25;100.00
11114;BME280;5610;52.154;9.198;2023-01-31T09:32:13;100961.63;;;6.24;100.00
11114;BME280;5610;52.154;9.198;2023-01-31T09:34:59;100929.59;;;6.09;100.00
11114;BME280;5610;52.154;9.198;2023-01-31T09:37:45;100943.31;;;6.18;100.00
11114;BME280;5610;52.154;9.198;2023-01-31T09:40:32;100933.66;;;6.17;100.00
11114;BME280;5610;52.154;9.198;2023-01-31T09:43:21;100939.03;;;6.16;100.00
11114;BME280;5610;52.154;9.198;2023-01-31T09:46:12;100945.97;;;6.18;100.00
11114;BME280;5610;52.154;9.198;2023-01-31T09:49:01;100947.59;;;6.22;100.00
11114;BME280;5610;52.154;9.198;2023-01-31T09:51:53;100922.19;;;5.95;100.00
11114;BME280;5610;52.154;9.198;2023-01-31T09:54:39;100927.91;;;6.06;100.00
11114;BME280;5610;52.154;9.198;2023-01-31T09:57:31;100937.19;;;5.94;100.00
11114;BME280;5610;52.154;9.198;2023-01-31T10:00:23;100934.09;;;5.82;100.00
11114;BME280;5610;52.154;9.198;2023-01-31T10:03:31;100927.31;;;5.74;100.00
11114;BME280;5610;52.154;9.198;2023-01-31T10:06:24;100930.25;;;5.90;100.00
11114;BME280;5610;52.154;9.198;2023-01-31T10:09:17;100932.88;;;5.92;100.00
11114;BME280;5610;52.154;9.198;2023-01-31T10:12:11;100920.09;;;6.03;100.00
11114;BME280;5610;52.154;9.198;2023-01-31T10:15:01;100929.69;;;6.05;100.00
11114;BME280;5610;52.154;9.198;2023-01-31T10:17:51;100920.88;;;6.07;100.00
11114;BME280;5610;52.154;9.198;2023-01-31T10:20:43;100915.06;;;5.97;100.00
11114;BME280;5610;52.154;9.198;2023-01-31T10:23:34;100914.59;;;6.09;100.00
11114;BME280;5610;52.154;9.198;2023-01-31T10:26:27;100912.19;;;6.03;100.00
11114;BME280;5610;52.154;9.198;2023-01-31T10:29:17;100893.53;;;6.06;100.00
11114;BME280;5610;52.154;9.198;2023-01-31T10:32:11;100891.22;;;6.20;100.00
11114;BME280;5610;52.154;9.198;2023-01-31T10:35:02;100891.50;;;6.13;100.00
11114;BME280;5610;52.154;9.198;2023-01-31T10:37:53;100868.94;;;6.26;100.00
11114;BME280;5610;52.154;9.198;2023-01-31T10:40:43;100879.34;;;6.30;100.00
11114;BME280;5610;52.154;9.198;2023-01-31T10:43:35;100868.50;;;6.37;100.00
11114;BME280;5610;52.154;9.198;2023-01-31T10:46:23;100884.41;;;6.79;100.00
11114;BME280;5610;52.154;9.198;2023-01-31T10:49:09;100865.63;;;6.85;100.00
11114;BME280;5610;52.154;9.198;2023-01-31T10:52:06;100847.88;;;6.87;100.00
11114;BME280;5610;52.154;9.198;2023-01-31T10:55:04;100844.22;;;7.10;100.00
11114;BME280;5610;52.154;9.198;2023-01-31T10:57:52;100844.88;;;6.95;100.00
11114;BME280;5610;52.154;9.198;2023-01-31T11:00:39;100835.47;;;6.87;100.00
11114;BME280;5610;52.154;9.198;2023-01-31T11:03:25;100826.59;;;6.88;100.00
11114;BME280;5610;52.154;9.198;2023-01-31T11:06:10;100813.75;;;6.79;100.00
11114;BME280;5610;52.154;9.198;2023-01-31T11:08:58;100801.31;;;6.81;100.00
11114;BME280;5610;52.154;9.198;2023-01-31T11:11:53;100797.47;;;6.88;100.00
11114;BME280;5610;52.154;9.198;2023-01-31T11:14:39;100795.88;;;7.05;100.00
11114;BME280;5610;52.154;9.198;2023-01-31T11:17:26;100796.00;;;7.02;100.00
11114;BME280;5610;52.154;9.198;2023-01-31T11:20:21;100781.19;;;6.77;100.00
11114;BME280;5610;52.154;9.198;2023-01-31T11:23:11;100784.16;;;6.90;100.00
11114;BME280;5610;52.154;9.198;2023-01-31T11:25:58;100762.38;;;6.83;100.00
11114;BME280;5610;52.154;9.198;2023-01-31T11:28:49;100771.75;;;6.91;100.00
11114;BME280;5610;52.154;9.198;2023-01-31T11:31:39;100766.03;;;6.81;100.00
11114;BME280;5610;52.154;9.198;2023-01-31T11:34:28;100769.09;;;6.72;100.00
11114;BME280;5610;52.154;9.198;2023-01-31T11:37:15;100767.97;;;6.77;100.00
11114;BME280;5610;52.154;9.198;2023-01-31T11:40:04;100778.47;;;6.79;100.00
11114;BME280;5610;52.154;9.198;2023-01-31T11:43:03;100777.94;;;6.91;100.00
11114;BME280;5610;52.154;9.198;2023-01-31T11:45:53;100750.81;;;6.66;100.00
11114;BME280;5610;52.154;9.198;2023-01-31T11:48:42;100776.50;;;6.64;100.00
11114;BME280;5610;52.154;9.198;2023-01-31T11:51:29;100792.16;;;6.68;100.00
11114;BME280;5610;52.154;9.198;2023-01-31T11:54:18;100773.00;;;6.63;100.00
11114;BME280;5610;52.154;9.198;2023-01-31T11:57:13;100777.22;;;6.67;100.00
11114;BME280;5610;52.154;9.198;2023-01-31T12:00:02;100769.00;;;6.73;100.00
11114;BME280;5610;52.154;9.198;2023-01-31T12:02:58;100743.47;;;6.72;100.00
11114;BME280;5610;52.154;9.198;2023-01-31T12:05:49;100731.41;;;6.65;100.00
11114;BME280;5610;52.154;9.198;2023-01-31T12:08:37;100725.94;;;6.88;100.00
11114;BME280;5610;52.154;9.198;2023-01-31T12:11:27;100714.41;;;6.89;100.00
11114;BME280;5610;52.154;9.198;2023-01-31T12:14:15;100731.31;;;6.87;100.00
11114;BME280;5610;52.154;9.198;2023-01-31T12:17:04;100730.03;;;6.77;100.00
11114;BME280;5610;52.154;9.198;2023-01-31T12:20:01;100714.97;;;6.98;100.00
11114;BME280;5610;52.154;9.198;2023-01-31T12:22:59;100701.75;;;6.77;100.00
11114;BME280;5610;52.154;9.198;2023-01-31T12:25:55;100703.19;;;6.84;100.00
11114;BME280;5610;52.154;9.198;2023-01-31T12:28:59;100695.78;;;6.72;100.00
11114;BME280;5610;52.154;9.198;2023-01-31T12:32:00;100706.97;;;6.79;100.00
11114;BME280;5610;52.154;9.198;2023-01-31T12:35:09;100711.41;;;6.97;100.00
11114;BME280;5610;52.154;9.198;2023-01-31T12:38:09;100695.25;;;6.84;100.00
11114;BME280;5610;52.154;9.198;2023-01-31T12:41:10;100700.16;;;6.73;100.00
11114;BME280;5610;52.154;9.198;2023-01-31T12:44:14;100683.69;;;6.67;100.00
11114;BME280;5610;52.154;9.198;2023-01-31T12:47:17;100714.75;;;6.63;100.00
11114;BME280;5610;52.154;9.198;2023-01-31T12:50:25;100697.59;;;6.72;100.00
11114;BME280;5610;52.154;9.198;2023-01-31T12:53:25;100713.47;;;6.72;100.00
11114;BME280;5610;52.154;9.198;2023-01-31T12:56:25;100708.38;;;6.67;100.00
11114;BME280;5610;52.154;9.198;2023-01-31T12:59:25;100736.19;;;6.77;100.00
11114;BME280;5610;52.154;9.198;2023-01-31T13:02:28;100723.28;;;6.70;100.00
11114;BME280;5610;52.154;9.198;2023-01-31T13:05:24;100739.09;;;6.51;100.00
11114;BME280;5610;52.154;9.198;2023-01-31T13:08:14;100723.75;;;6.59;100.00
11114;BME280;5610;52.154;9.198;2023-01-31T13:11:03;100730.81;;;6.58;100.00
11114;BME280;5610;52.154;9.198;2023-01-31T13:13:54;100729.63;;;6.45;100.00
11114;BME280;5610;52.154;9.198;2023-01-31T13:16:43;100731.81;;;6.36;100.00
11114;BME280;5610;52.154;9.198;2023-01-31T13:19:33;100728.31;;;6.35;100.00
11114;BME280;5610;52.154;9.198;2023-01-31T13:22:24;100728.50;;;6.30;100.00
11114;BME280;5610;52.154;9.198;2023-01-31T13:25:15;100723.63;;;6.42;100.00
11114;BME280;5610;52.154;9.198;2023-01-31T13:28:05;100731.16;;;6.51;100.00
11114;BME280;5610;52.154;9.198;2023-01-31T13:30:58;100724.94;;;6.52;100.00
11114;BME280;5610;52.154;9.198;2023-01-31T13:33:46;100725.53;;;6.58;100.00
11114;BME280;5610;52.154;9.198;2023-01-31T13:36:37;100714.53;;;6.47;100.00
11114;BME280;5610;52.154;9.198;2023-01-31T13:39:28;100729.09;;;6.57;100.00
11114;BME280;5610;52.154;9.198;2023-01-31T13:42:17;100717.50;;;6.60;100.00
11114;BME280;5610;52.154;9.198;2023-01-31T13:45:04;100720.63;;;6.70;100.00
11114;BME280;5610;52.154;9.198;2023-01-31T13:47:57;100715.09;;;6.74;100.00
11114;BME280;5610;52.154;9.198;2023-01-31T13:50:48;100700.34;;;6.69;100.00
11114;BME280;5610;52.154;9.198;2023-01-31T13:53:43;100708.63;;;6.81;100.00
11114;BME280;5610;52.154;9.198;2023-01-31T13:56:32;100691.94;;;6.79;100.00
11114;BME280;5610;52.154;9.198;2023-01-31T13:59:20;100700.09;;;6.54;100.00
11114;BME280;5610;52.154;9.198;2023-01-31T14:02:16;100688.03;;;6.68;100.00
11114;BME280;5610;52.154;9.198;2023-01-31T14:05:09;100685.28;;;6.71;100.00
11114;BME280;5610;52.154;9.198;2023-01-31T14:08:40;100690.78;;;6.66;100.00
11114;BME280;5610;52.154;9.198;2023-01-31T14:11:42;100692.22;;;6.73;100.00
11114;BME280;5610;52.154;9.198;2023-01-31T14:14:36;100679.06;;;6.72;100.00
11114;BME280;5610;52.154;9.198;2023-01-31T14:20:46;100683.78;;;6.84;100.00
11114;BME280;5610;52.154;9.198;2023-01-31T14:23:44;100680.66;;;6.95;100.00
11114;BME280;5610;52.154;9.198;2023-01-31T14:26:32;100684.94;;;6.97;100.00
11114;BME280;5610;52.154;9.198;2023-01-31T14:29:20;100688.38;;;6.99;100.00
11114;BME280;5610;52.154;9.198;2023-01-31T14:32:12;100690.47;;;6.93;100.00
11114;BME280;5610;52.154;9.198;2023-01-31T14:35:05;100686.78;;;6.95;100.00
11114;BME280;5610;52.154;9.198;2023-01-31T14:38:08;100693.81;;;6.96;100.00
11114;BME280;5610;52.154;9.198;2023-01-31T14:41:02;100685.22;;;7.10;100.00
11114;BME280;5610;52.154;9.198;2023-01-31T14:43:58;100690.69;;;7.07;100.00
11114;BME280;5610;52.154;9.198;2023-01-31T14:47:06;100692.47;;;7.06;100.00
11114;BME280;5610;52.154;9.198;2023-01-31T14:50:15;100693.34;;;7.07;100.00
11114;BME280;5610;52.154;9.198;2023-01-31T14:53:23;100683.16;;;7.16;100.00
11114;BME280;5610;52.154;9.198;2023-01-31T14:56:24;100688.38;;;7.18;100.00
11114;BME280;5610;52.154;9.198;2023-01-31T14:59:24;100679.94;;;7.10;100.00
11114;BME280;5610;52.154;9.198;2023-01-31T15:02:24;100689.38;;;7.15;100.00
11114;BME280;5610;52.154;9.198;2023-01-31T15:05:13;100699.75;;;7.01;100.00